メインページ
METAR-TAF:

METAR-TAF

空港 :

アスンシオン, パラグアイ

シルビオ・ペッティロッシ国際空港

緯度: 25-16S, 経度: 057-38W, 海抜: 101m

現時点の気象観測

当レポートは30分前の17:00(UTC)に作成
北東の風 14kt、最大25ktの突風を伴う
気温 31°C
湿度 46%
気圧 1009 hPa
視程10km以上
1,500メートル以下は雲なし、積乱雲なし

METAR: SGAS 231700Z 05014G25KT CAVOK 31/18 Q1009

時間: 13:30 (17:30 UTC)

予報

当レポートは6時間53分前の10:37(UTC)に作成
予報は23日の 12時(UTC)から 24日の 12時(UTC)まで有効
東/北東の風 12kt
視程10km以上
1,500メートル以下は雲なし、積乱雲なし
23日の 14時(UTC)から 23日の 17時(UTC)まで徐々に
北東の風 14kt
視程10km以上
1,500メートル以下は雲なし、積乱雲なし

TAF: SGAS 231037Z 2312/2412 07012KT CAVOK TX32/2319Z TN21/2410Z BECMG 2314/2317 05014KT CAVOK

4,000以上の空港の気象観測と天気予報(METAR報とTAF報)

利用可能な観測所は地図上に黄色い丸と赤い丸で示す。

丸の上にカーソルを重ねると観測所名を参照できる。

次にクリックすると気象観測と天気予報を参照できる。

マップの切り替え:黒色「×」印の緑ボタンをクリックして拡大、「-」印の緑ボタンをクリックして縮小、緑色の三角印をクリックして隣りの地図に切り替え


METAR-TAF: